Time;durP1;ratioP1;P1;durP2;ratioP2;P2;SDS_P1;SDS_P2;PMS_P1;PMS_P2;Temp;Humidity;BMP_temperature;BMP_pressure;BME280_temperature;BME280_humidity;BME280_pressure;Samples;Min_cycle;Max_cycle;Signal;HPM_P1;HPM_P2
2021/10/17 00:01:56;;;;;;;;;16.25;16.00;;;;;;;;5012454;28;51176;-64
2021/10/17 00:04:22;;;;;;;;;15.50;13.75;;;;;;;;5026905;28;51449;-67
2021/10/17 00:06:47;;;;;;;;;14.00;14.00;;;;;;;;5010799;28;51160;-66
2021/10/17 00:09:12;;;;;;;;;16.75;15.50;;;;;;;;5012728;28;51108;-65
2021/10/17 00:11:37;;;;;;;;;11.75;11.75;;;;;;;;5013449;28;50942;-66
2021/10/17 00:14:03;;;;;;;;;15.00;15.00;;;;;;;;5008493;28;51000;-67
2021/10/17 00:16:28;;;;;;;;;15.25;12.50;;;;;;;;5015060;28;51014;-65
2021/10/17 00:18:53;;;;;;;;;12.25;11.75;;;;;;;;5023178;28;51051;-65
2021/10/17 00:21:18;;;;;;;;;16.50;15.00;;;;;;;;4994368;28;51323;-65
2021/10/17 00:23:44;;;;;;;;;13.25;11.75;;;;;;;;5011934;28;51327;-65
2021/10/17 00:26:09;;;;;;;;;17.50;15.50;;;;;;;;5011786;28;51049;-65
2021/10/17 00:28:34;;;;;;;;;11.25;9.75;;;;;;;;5012883;28;51029;-66
2021/10/17 00:30:59;;;;;;;;;7.25;5.25;;;;;;;;5011535;28;51082;-65
2021/10/17 00:33:25;;;;;;;;;18.25;17.50;;;;;;;;5013414;28;50904;-66
2021/10/17 00:35:52;;;;;;;;;15.75;15.75;;;;;;;;5011015;28;50951;-66
2021/10/17 00:38:17;;;;;;;;;14.50;14.50;;;;;;;;5011457;28;50904;-66
2021/10/17 00:40:42;;;;;;;;;14.50;13.75;;;;;;;;5012558;28;51018;-66
2021/10/17 00:43:07;;;;;;;;;14.75;14.00;;;;;;;;5012619;28;51180;-66
2021/10/17 00:45:32;;;;;;;;;13.75;13.00;;;;;;;;4994469;28;53616;-67
2021/10/17 00:47:59;;;;;;;;;14.75;14.25;;;;;;;;5002553;28;51156;-67
2021/10/17 00:50:24;;;;;;;;;18.25;17.25;;;;;;;;5020164;28;51139;-67
2021/10/17 00:52:50;;;;;;;;;15.00;15.00;;;;;;;;5012475;28;51038;-67
2021/10/17 00:55:17;;;;;;;;;18.50;17.75;;;;;;;;5010545;28;51781;-67
2021/10/17 00:57:43;;;;;;;;;17.00;15.75;;;;;;;;5012761;28;51004;-67
2021/10/17 01:00:09;;;;;;;;;15.00;14.25;;;;;;;;5015188;28;51078;-67
2021/10/17 01:02:34;;;;;;;;;16.50;15.50;;;;;;;;5015109;28;51228;-67
2021/10/17 01:05:00;;;;;;;;;14.75;14.00;;;;;;;;5012536;28;51305;-67
2021/10/17 01:07:25;;;;;;;;;15.50;14.75;;;;;;;;5015845;28;50862;-68
2021/10/17 01:09:51;;;;;;;;;15.75;15.75;;;;;;;;5026032;28;50915;-67
2021/10/17 01:12:16;;;;;;;;;16.00;15.25;;;;;;;;5016290;28;50829;-67
2021/10/17 01:14:41;;;;;;;;;20.25;20.00;;;;;;;;5014692;28;51715;-67
2021/10/17 01:17:06;;;;;;;;;17.50;14.00;;;;;;;;5016126;28;50880;-67
2021/10/17 01:19:32;;;;;;;;;16.75;15.25;;;;;;;;5015731;28;50898;-67
2021/10/17 01:21:57;;;;;;;;;19.00;16.50;;;;;;;;5013813;28;51379;-66
2021/10/17 01:24:23;;;;;;;;;17.00;17.00;;;;;;;;5015453;28;50887;-68
2021/10/17 01:26:48;;;;;;;;;19.00;16.75;;;;;;;;5015096;28;52568;-67
2021/10/17 01:29:14;;;;;;;;;14.75;14.75;;;;;;;;5030391;28;51252;-67
2021/10/17 01:31:50;;;;;;;;;12.50;11.00;;;;;;;;5013269;28;50974;-67
2021/10/17 01:34:15;;;;;;;;;15.50;14.00;;;;;;;;5015462;28;51135;-67
2021/10/17 01:36:41;;;;;;;;;16.75;16.75;;;;;;;;5025068;28;51096;-67
2021/10/17 01:39:07;;;;;;;;;22.25;21.75;;;;;;;;5015516;28;51132;-66
2021/10/17 01:41:32;;;;;;;;;17.25;16.25;;;;;;;;5018165;28;51205;-66
2021/10/17 01:44:05;;;;;;;;;18.50;16.25;;;;;;;;5014211;28;51024;-67
2021/10/17 01:46:30;;;;;;;;;21.50;20.00;;;;;;;;5014497;28;51055;-67
2021/10/17 01:48:56;;;;;;;;;20.00;18.75;;;;;;;;5015414;28;50981;-67
2021/10/17 01:51:22;;;;;;;;;20.50;19.00;;;;;;;;5007881;28;50952;-67
2021/10/17 01:53:47;;;;;;;;;21.00;18.50;;;;;;;;5018263;28;50996;-67
2021/10/17 01:56:12;;;;;;;;;20.25;18.75;;;;;;;;5021486;28;50927;-67
2021/10/17 01:58:37;;;;;;;;;18.25;17.00;;;;;;;;5015258;28;52154;-67
2021/10/17 02:01:03;;;;;;;;;21.75;20.75;;;;;;;;5015196;28;51200;-67
2021/10/17 02:03:28;;;;;;;;;21.50;19.50;;;;;;;;5014966;28;51112;-67
2021/10/17 02:05:54;;;;;;;;;19.25;16.75;;;;;;;;5014287;28;51006;-66
2021/10/17 02:08:19;;;;;;;;;21.50;20.75;;;;;;;;5013522;28;51064;-67
2021/10/17 02:10:44;;;;;;;;;16.75;16.75;;;;;;;;5013152;28;51393;-66
2021/10/17 02:13:09;;;;;;;;;20.75;20.00;;;;;;;;5025639;28;51991;-67
2021/10/17 02:15:35;;;;;;;;;19.25;16.00;;;;;;;;5014175;28;51656;-68
2021/10/17 02:18:00;;;;;;;;;24.25;22.25;;;;;;;;5014510;28;51245;-66
2021/10/17 02:20:25;;;;;;;;;20.75;19.00;;;;;;;;5015293;28;51043;-66
2021/10/17 02:22:50;;;;;;;;;19.00;18.00;;;;;;;;5013517;28;51660;-67
2021/10/17 02:25:15;;;;;;;;;24.00;23.00;;;;;;;;5012620;28;51363;-67
2021/10/17 02:27:41;;;;;;;;;18.75;18.75;;;;;;;;5013014;28;51363;-67
2021/10/17 02:30:07;;;;;;;;;19.50;16.25;;;;;;;;5018711;28;51295;-67
2021/10/17 02:32:35;;;;;;;;;16.75;16.75;;;;;;;;5024471;28;51055;-67
2021/10/17 02:35:01;;;;;;;;;20.50;20.00;;;;;;;;5010958;28;51312;-66
2021/10/17 02:37:27;;;;;;;;;19.25;18.75;;;;;;;;5014031;28;50864;-67
2021/10/17 02:39:52;;;;;;;;;19.75;18.25;;;;;;;;5027106;28;51398;-66
2021/10/17 02:42:17;;;;;;;;;22.00;21.75;;;;;;;;5017026;28;52013;-67
2021/10/17 02:44:42;;;;;;;;;20.50;19.75;;;;;;;;5013458;28;50993;-67
2021/10/17 02:47:08;;;;;;;;;18.75;18.75;;;;;;;;5014004;28;51176;-67
2021/10/17 02:49:33;;;;;;;;;22.75;22.25;;;;;;;;5014656;28;51049;-67
2021/10/17 02:51:58;;;;;;;;;20.25;20.00;;;;;;;;5027121;28;52013;-67
2021/10/17 02:54:24;;;;;;;;;20.75;20.00;;;;;;;;5014047;28;51118;-67
2021/10/17 02:56:49;;;;;;;;;18.25;17.50;;;;;;;;5013999;28;50907;-67
2021/10/17 02:59:15;;;;;;;;;21.25;20.25;;;;;;;;5007792;28;50891;-67
2021/10/17 03:01:40;;;;;;;;;22.25;20.75;;;;;;;;5014172;28;51005;-67
2021/10/17 03:04:05;;;;;;;;;22.75;22.00;;;;;;;;4996888;28;51085;-67
2021/10/17 03:06:31;;;;;;;;;26.00;25.00;;;;;;;;5009058;28;51364;-67
2021/10/17 03:08:57;;;;;;;;;22.00;21.00;;;;;;;;5014159;28;50861;-67
2021/10/17 03:11:22;;;;;;;;;26.25;21.50;;;;;;;;5013026;28;51052;-67
2021/10/17 03:13:47;;;;;;;;;20.50;17.25;;;;;;;;5016183;28;51029;-67
2021/10/17 03:16:12;;;;;;;;;25.00;23.75;;;;;;;;5013049;28;51523;-67
2021/10/17 03:18:38;;;;;;;;;20.50;20.50;;;;;;;;5014342;28;51299;-66
2021/10/17 03:21:03;;;;;;;;;22.75;21.25;;;;;;;;5013017;28;51951;-67
2021/10/17 03:23:28;;;;;;;;;25.50;22.25;;;;;;;;5011136;28;50991;-67
2021/10/17 03:25:53;;;;;;;;;24.75;21.00;;;;;;;;5012952;28;51034;-67
2021/10/17 03:28:18;;;;;;;;;19.75;19.75;;;;;;;;5014306;28;50904;-67
2021/10/17 03:30:44;;;;;;;;;27.00;22.50;;;;;;;;5012801;28;52258;-67
2021/10/17 03:33:09;;;;;;;;;25.50;22.25;;;;;;;;5013994;28;50801;-67
2021/10/17 03:35:34;;;;;;;;;25.00;23.25;;;;;;;;5013139;28;51003;-67
2021/10/17 03:37:59;;;;;;;;;25.00;22.75;;;;;;;;5026871;28;51491;-66
2021/10/17 03:40:24;;;;;;;;;20.25;19.25;;;;;;;;5014934;28;51731;-66
2021/10/17 03:42:50;;;;;;;;;22.00;21.00;;;;;;;;5013831;28;50962;-67
2021/10/17 03:45:15;;;;;;;;;18.00;16.25;;;;;;;;5013330;28;52172;-67
2021/10/17 03:47:40;;;;;;;;;23.75;22.75;;;;;;;;5013017;28;51204;-67
2021/10/17 03:50:05;;;;;;;;;20.00;17.75;;;;;;;;5012411;28;51130;-66
2021/10/17 03:52:31;;;;;;;;;21.50;20.25;;;;;;;;5013426;28;51185;-66
2021/10/17 03:54:56;;;;;;;;;22.25;20.50;;;;;;;;4995540;28;50991;-67
2021/10/17 03:57:21;;;;;;;;;24.25;22.25;;;;;;;;5004565;28;51024;-66
2021/10/17 03:59:46;;;;;;;;;21.25;19.50;;;;;;;;5007244;28;51980;-67
2021/10/17 04:02:11;;;;;;;;;17.25;16.50;;;;;;;;5023478;28;51162;-67
2021/10/17 04:04:37;;;;;;;;;21.50;19.25;;;;;;;;5015291;28;51045;-66
2021/10/17 04:07:02;;;;;;;;;28.25;24.75;;;;;;;;5013313;28;51084;-68
2021/10/17 04:09:27;;;;;;;;;21.00;19.75;;;;;;;;5012825;28;51952;-67
2021/10/17 04:11:52;;;;;;;;;26.25;23.75;;;;;;;;5011741;28;51193;-66
2021/10/17 04:14:18;;;;;;;;;24.25;24.25;;;;;;;;4994580;28;51121;-66
2021/10/17 04:16:43;;;;;;;;;25.50;23.75;;;;;;;;5026145;28;51045;-67
2021/10/17 04:19:08;;;;;;;;;26.25;24.25;;;;;;;;5027282;28;52007;-67
2021/10/17 04:21:33;;;;;;;;;18.00;17.50;;;;;;;;5016018;28;51141;-66
2021/10/17 04:23:58;;;;;;;;;21.25;21.00;;;;;;;;5012965;28;51041;-67
2021/10/17 04:26:24;;;;;;;;;20.50;19.00;;;;;;;;5013428;28;51280;-68
2021/10/17 04:28:49;;;;;;;;;21.75;19.75;;;;;;;;5012892;28;51563;-67
2021/10/17 04:31:14;;;;;;;;;25.75;22.00;;;;;;;;5010522;28;50935;-66
2021/10/17 04:33:40;;;;;;;;;21.50;21.00;;;;;;;;5012757;28;51079;-67
2021/10/17 04:36:05;;;;;;;;;25.00;24.00;;;;;;;;5011045;28;51236;-67
2021/10/17 04:38:31;;;;;;;;;25.75;24.25;;;;;;;;5012286;28;51516;-67
2021/10/17 04:40:56;;;;;;;;;26.00;23.25;;;;;;;;5011963;28;51081;-67
2021/10/17 04:43:21;;;;;;;;;26.50;25.00;;;;;;;;5025379;28;51151;-67
2021/10/17 04:45:46;;;;;;;;;25.50;24.25;;;;;;;;5012359;28;50940;-67
2021/10/17 04:48:12;;;;;;;;;25.75;25.50;;;;;;;;5019906;28;51112;-67
2021/10/17 04:50:37;;;;;;;;;25.25;23.00;;;;;;;;5016201;28;51018;-67
2021/10/17 04:53:02;;;;;;;;;23.50;20.75;;;;;;;;5012540;28;51100;-67
2021/10/17 04:55:28;;;;;;;;;25.25;24.25;;;;;;;;5012011;28;51296;-67
2021/10/17 04:57:53;;;;;;;;;24.25;23.25;;;;;;;;5012746;28;50966;-67
2021/10/17 05:00:18;;;;;;;;;30.50;27.75;;;;;;;;5011767;28;50832;-67
2021/10/17 05:02:44;;;;;;;;;23.50;20.50;;;;;;;;4991296;28;51350;-67
2021/10/17 05:05:09;;;;;;;;;23.75;22.75;;;;;;;;5008161;28;50831;-67
2021/10/17 05:07:34;;;;;;;;;25.00;23.25;;;;;;;;5010929;28;52675;-66
2021/10/17 05:09:59;;;;;;;;;26.75;25.00;;;;;;;;5011540;28;51185;-66
2021/10/17 05:12:25;;;;;;;;;25.50;25.50;;;;;;;;5016320;28;50986;-66
2021/10/17 05:14:50;;;;;;;;;27.50;24.50;;;;;;;;5012595;28;50894;-67
2021/10/17 05:17:15;;;;;;;;;25.25;23.25;;;;;;;;5011546;28;51613;-66
2021/10/17 05:19:41;;;;;;;;;27.75;25.50;;;;;;;;5011258;28;51375;-67
2021/10/17 05:22:06;;;;;;;;;29.75;26.75;;;;;;;;5013463;28;51219;-66
2021/10/17 05:24:31;;;;;;;;;27.75;25.25;;;;;;;;5012079;28;51120;-67
2021/10/17 05:26:56;;;;;;;;;31.00;27.25;;;;;;;;5009601;28;51624;-67
2021/10/17 05:29:22;;;;;;;;;22.75;19.50;;;;;;;;5012516;28;51006;-66
2021/10/17 05:31:47;;;;;;;;;27.25;25.00;;;;;;;;5011735;28;51062;-66
2021/10/17 05:34:12;;;;;;;;;28.00;25.50;;;;;;;;5012203;28;51284;-66
2021/10/17 05:36:37;;;;;;;;;23.00;20.75;;;;;;;;5008880;28;51080;-67
2021/10/17 05:39:03;;;;;;;;;25.00;23.00;;;;;;;;5025980;28;51232;-67
2021/10/17 05:41:28;;;;;;;;;28.00;25.75;;;;;;;;5012195;28;50950;-66
2021/10/17 05:43:53;;;;;;;;;25.75;25.00;;;;;;;;5011856;28;51124;-66
2021/10/17 05:46:18;;;;;;;;;25.50;24.75;;;;;;;;5013527;28;52046;-66
2021/10/17 05:48:44;;;;;;;;;25.25;23.25;;;;;;;;5015661;28;50986;-66
2021/10/17 05:51:09;;;;;;;;;31.00;26.00;;;;;;;;5014535;28;51139;-66
2021/10/17 05:53:34;;;;;;;;;25.50;23.25;;;;;;;;5014069;28;51119;-66
2021/10/17 05:56:00;;;;;;;;;26.50;25.25;;;;;;;;5015086;28;50880;-66
2021/10/17 05:58:25;;;;;;;;;24.50;21.50;;;;;;;;5014351;28;51008;-66
2021/10/17 06:00:50;;;;;;;;;23.00;21.50;;;;;;;;5014332;28;51057;-65
2021/10/17 06:03:15;;;;;;;;;28.75;25.50;;;;;;;;5015178;28;50929;-66
2021/10/17 06:05:41;;;;;;;;;25.75;24.50;;;;;;;;5015952;28;50955;-66
2021/10/17 06:08:06;;;;;;;;;25.00;22.50;;;;;;;;5011803;28;51105;-66
2021/10/17 06:10:32;;;;;;;;;25.25;24.00;;;;;;;;5014380;28;50887;-66
2021/10/17 06:12:58;;;;;;;;;19.25;19.00;;;;;;;;5015074;28;50912;-66
2021/10/17 06:15:23;;;;;;;;;29.00;25.50;;;;;;;;5014616;28;52022;-66
2021/10/17 06:17:48;;;;;;;;;19.25;18.50;;;;;;;;4997864;28;51189;-67
2021/10/17 06:20:14;;;;;;;;;24.00;23.75;;;;;;;;5011952;28;51004;-67
2021/10/17 06:22:39;;;;;;;;;30.25;25.25;;;;;;;;5009944;28;51483;-67
2021/10/17 06:25:04;;;;;;;;;27.75;24.25;;;;;;;;5014421;28;52700;-67
2021/10/17 06:27:30;;;;;;;;;19.50;18.75;;;;;;;;5007559;28;51164;-66
2021/10/17 06:29:55;;;;;;;;;26.75;24.75;;;;;;;;5014137;28;50981;-66
2021/10/17 06:32:20;;;;;;;;;24.50;22.00;;;;;;;;5014835;28;51316;-66
2021/10/17 06:34:45;;;;;;;;;24.50;20.00;;;;;;;;5027639;28;52118;-66
2021/10/17 06:37:11;;;;;;;;;23.75;22.25;;;;;;;;5011841;28;51289;-66
2021/10/17 06:39:37;;;;;;;;;23.75;20.75;;;;;;;;5012752;28;52835;-65
2021/10/17 06:42:02;;;;;;;;;26.75;21.50;;;;;;;;5011871;28;51078;-66
2021/10/17 06:44:27;;;;;;;;;23.75;23.50;;;;;;;;4996630;28;51862;-66
2021/10/17 06:46:54;;;;;;;;;24.25;23.50;;;;;;;;5012951;28;51058;-67
2021/10/17 06:49:19;;;;;;;;;25.00;23.25;;;;;;;;5003034;28;51131;-67
2021/10/17 06:51:45;;;;;;;;;20.75;18.75;;;;;;;;5003257;28;51298;-65
2021/10/17 06:54:10;;;;;;;;;25.75;24.00;;;;;;;;5013241;28;52315;-65
2021/10/17 06:56:35;;;;;;;;;24.25;23.25;;;;;;;;5007995;28;51244;-65
2021/10/17 06:59:00;;;;;;;;;20.25;19.50;;;;;;;;5010685;28;50907;-65
2021/10/17 07:01:26;;;;;;;;;28.75;24.75;;;;;;;;4990603;28;52492;-66
2021/10/17 07:03:51;;;;;;;;;24.50;23.50;;;;;;;;5007160;28;51713;-68
2021/10/17 07:06:16;;;;;;;;;23.00;20.25;;;;;;;;5011147;28;50935;-69
2021/10/17 07:08:41;;;;;;;;;21.50;18.75;;;;;;;;5010352;28;51142;-68
2021/10/17 07:11:07;;;;;;;;;26.00;25.25;;;;;;;;5010961;28;51041;-68
2021/10/17 07:13:32;;;;;;;;;17.50;17.50;;;;;;;;5006988;28;52489;-68
2021/10/17 07:15:57;;;;;;;;;24.75;24.50;;;;;;;;4992985;28;50988;-67
2021/10/17 07:18:22;;;;;;;;;21.75;21.00;;;;;;;;5009695;28;50790;-67
2021/10/17 07:20:48;;;;;;;;;26.00;24.50;;;;;;;;5012087;28;51385;-69
2021/10/17 07:23:13;;;;;;;;;22.50;21.00;;;;;;;;5010618;28;52554;-68
2021/10/17 07:25:38;;;;;;;;;24.75;22.50;;;;;;;;5008453;28;51233;-67
2021/10/17 07:28:04;;;;;;;;;22.50;19.50;;;;;;;;5003232;28;51220;-69
2021/10/17 07:30:29;;;;;;;;;24.75;24.50;;;;;;;;4993300;28;52159;-66
2021/10/17 07:32:54;;;;;;;;;29.00;28.25;;;;;;;;5011643;28;51884;-67
2021/10/17 07:35:19;;;;;;;;;25.50;24.00;;;;;;;;5011442;28;51335;-67
2021/10/17 07:37:45;;;;;;;;;28.50;25.50;;;;;;;;4989421;28;51366;-68
2021/10/17 07:40:10;;;;;;;;;22.50;22.50;;;;;;;;5015715;28;50984;-67
2021/10/17 07:42:35;;;;;;;;;26.25;24.00;;;;;;;;4987920;28;51538;-71
2021/10/17 07:45:01;;;;;;;;;28.75;23.75;;;;;;;;5008874;28;51208;-71
2021/10/17 07:47:26;;;;;;;;;25.00;23.50;;;;;;;;5009578;28;51209;-69
2021/10/17 07:49:52;;;;;;;;;26.75;22.75;;;;;;;;5012757;28;51477;-69
2021/10/17 07:52:17;;;;;;;;;24.50;23.75;;;;;;;;5011579;28;51118;-68
2021/10/17 07:54:42;;;;;;;;;27.25;25.50;;;;;;;;5012831;28;51060;-69
2021/10/17 07:57:07;;;;;;;;;22.00;20.75;;;;;;;;5011047;28;51129;-69
2021/10/17 07:59:33;;;;;;;;;23.50;22.00;;;;;;;;5013379;28;51125;-70
2021/10/17 08:01:58;;;;;;;;;20.75;20.00;;;;;;;;5011787;28;51612;-70
2021/10/17 08:04:23;;;;;;;;;24.75;24.25;;;;;;;;5013260;28;51070;-65
2021/10/17 08:06:49;;;;;;;;;22.25;21.50;;;;;;;;5012461;28;51083;-66
2021/10/17 08:09:14;;;;;;;;;21.75;21.75;;;;;;;;5005258;28;51096;-67
2021/10/17 08:11:39;;;;;;;;;29.25;27.00;;;;;;;;5012661;28;52085;-66
2021/10/17 08:14:04;;;;;;;;;25.00;25.00;;;;;;;;4989165;28;52847;-66
2021/10/17 08:16:30;;;;;;;;;25.50;25.00;;;;;;;;5012518;28;51041;-66
2021/10/17 08:18:55;;;;;;;;;26.75;25.25;;;;;;;;4999776;28;51169;-63
2021/10/17 08:21:20;;;;;;;;;19.00;18.25;;;;;;;;5010751;28;52864;-63
2021/10/17 08:23:45;;;;;;;;;23.00;22.00;;;;;;;;5012358;28;50987;-63
2021/10/17 08:26:11;;;;;;;;;19.75;19.25;;;;;;;;5003875;28;51029;-63
2021/10/17 08:28:36;;;;;;;;;21.50;20.50;;;;;;;;5012060;28;51023;-63
2021/10/17 08:31:01;;;;;;;;;24.00;23.75;;;;;;;;5012357;28;51191;-64
2021/10/17 08:33:27;;;;;;;;;20.25;20.00;;;;;;;;5012711;28;51005;-63
2021/10/17 08:35:52;;;;;;;;;19.00;18.00;;;;;;;;5011678;28;51101;-64
2021/10/17 08:38:17;;;;;;;;;22.25;21.50;;;;;;;;5012355;28;50856;-64
2021/10/17 08:40:46;;;;;;;;;24.00;23.50;;;;;;;;5012714;28;51158;-64
2021/10/17 08:43:11;;;;;;;;;23.25;21.75;;;;;;;;5012278;28;51033;-64
2021/10/17 08:45:36;;;;;;;;;15.50;14.75;;;;;;;;5012387;28;51173;-64
2021/10/17 08:48:02;;;;;;;;;24.00;23.25;;;;;;;;5012488;28;51272;-64
2021/10/17 08:50:28;;;;;;;;;27.25;25.75;;;;;;;;5012364;28;51057;-64
2021/10/17 08:52:53;;;;;;;;;25.00;25.00;;;;;;;;5011854;28;51035;-64
2021/10/17 08:55:18;;;;;;;;;23.25;22.50;;;;;;;;5012573;28;51006;-64
2021/10/17 08:57:44;;;;;;;;;23.25;21.75;;;;;;;;5012455;28;51196;-64
2021/10/17 09:00:24;;;;;;;;;20.25;19.25;;;;;;;;5011872;28;51713;-63
2021/10/17 09:02:49;;;;;;;;;21.25;20.75;;;;;;;;5011279;28;51280;-64
2021/10/17 09:05:14;;;;;;;;;23.00;22.00;;;;;;;;5006366;28;51181;-63
2021/10/17 09:07:39;;;;;;;;;22.25;21.25;;;;;;;;5012029;28;51445;-64
2021/10/17 09:10:06;;;;;;;;;22.50;22.00;;;;;;;;5011953;28;52695;-64
2021/10/17 09:12:31;;;;;;;;;19.75;19.50;;;;;;;;5012368;28;51090;-65
2021/10/17 09:15:15;;;;;;;;;19.25;19.25;;;;;;;;5012357;28;51145;-64
2021/10/17 09:18:00;;;;;;;;;21.50;20.00;;;;;;;;5001399;28;51043;-64
2021/10/17 09:20:26;;;;;;;;;21.50;20.75;;;;;;;;4989566;28;54115;-64
2021/10/17 09:22:51;;;;;;;;;22.00;21.25;;;;;;;;5014818;28;51066;-64
2021/10/17 09:25:27;;;;;;;;;21.25;20.25;;;;;;;;5014921;28;51224;-65
2021/10/17 09:27:53;;;;;;;;;23.00;22.00;;;;;;;;5015528;28;50972;-65
2021/10/17 09:30:18;;;;;;;;;18.00;17.50;;;;;;;;5014951;28;51972;-65
2021/10/17 09:32:43;;;;;;;;;21.25;21.25;;;;;;;;5014297;28;51038;-65
2021/10/17 09:35:08;;;;;;;;;24.75;22.75;;;;;;;;5015158;28;51027;-64
2021/10/17 09:37:44;;;;;;;;;18.33;18.33;;;;;;;;5015016;28;50924;-65
2021/10/17 09:40:20;;;;;;;;;20.25;19.50;;;;;;;;5007171;28;52749;-65
2021/10/17 09:43:05;;;;;;;;;20.75;20.75;;;;;;;;5005690;28;51095;-65
2021/10/17 09:45:30;;;;;;;;;20.25;20.25;;;;;;;;5014834;28;50816;-64
2021/10/17 09:47:55;;;;;;;;;16.75;16.00;;;;;;;;5014982;28;51008;-64
2021/10/17 09:50:21;;;;;;;;;22.50;21.00;;;;;;;;5014791;28;52652;-64
2021/10/17 09:53:01;;;;;;;;;21.75;21.25;;;;;;;;5014223;28;51588;-64
2021/10/17 09:55:26;;;;;;;;;18.50;17.75;;;;;;;;5004332;28;51253;-60
2021/10/17 09:57:51;;;;;;;;;22.00;22.00;;;;;;;;5014759;28;50952;-59
2021/10/17 10:00:17;;;;;;;;;21.00;19.25;;;;;;;;5013929;28;51951;-59
2021/10/17 10:02:46;;;;;;;;;31.50;29.25;;;;;;;;5014591;28;51003;-61
2021/10/17 10:05:13;;;;;;;;;19.33;18.67;;;;;;;;5014728;28;50966;-60
2021/10/17 10:07:40;;;;;;;;;22.00;22.00;;;;;;;;5010544;28;51308;-70
2021/10/17 10:10:06;;;;;;;;;18.33;18.33;;;;;;;;5012416;28;52282;-72
2021/10/17 10:12:31;;;;;;;;;19.00;19.00;;;;;;;;5006860;28;51006;-70
2021/10/17 10:27:58;;;;;;;;;19.75;19.75;;;;;-147.17;53.24;51836.47;5094796;27;51172;-55
2021/10/17 10:30:25;;;;;;;;;14.75;14.75;;;;;-147.17;51.90;51895.53;5089016;27;51161;-55
2021/10/17 10:33:12;;;;;;;;;20.00;19.00;;;;;-147.17;51.53;51988.09;5087599;27;51213;-55
2021/10/17 10:36:00;;;;;;;;;20.25;18.00;;;;;-147.17;49.93;52108.22;5086696;27;51933;-55
2021/10/17 10:38:48;;;;;;;;;20.25;19.50;;;;;-147.17;48.19;52029.44;5077908;27;51100;-54
2021/10/17 10:41:17;;;;;;;;;13.50;13.50;;;;;-147.17;45.39;51997.94;5088737;27;51075;-56
2021/10/17 10:43:43;;;;;;;;;19.50;19.50;;;;;-147.17;46.25;51842.38;5086380;27;51278;-55
2021/10/17 10:46:08;;;;;;;;;18.00;18.00;;;;;-147.17;46.66;51854.19;5087795;27;51599;-56
2021/10/17 10:48:47;;;;;;;;;21.00;19.00;;;;;-147.17;46.61;51789.19;5088813;27;51093;-54
2021/10/17 10:51:37;;;;;;;;;17.00;17.00;;;;;-147.17;47.44;51848.28;5075845;27;50971;-55
2021/10/17 10:54:03;;;;;;;;;21.25;21.25;;;;;-147.17;47.42;51781.31;5077560;27;51449;-56
2021/10/17 10:56:37;;;;;;;;;18.50;18.00;;;;;-147.17;48.37;51848.28;5086294;27;51894;-55
2021/10/17 10:59:03;;;;;;;;;18.00;17.25;;;;;-147.17;47.77;52005.81;5077884;27;51156;-54
2021/10/17 11:01:53;;;;;;;;;12.75;12.00;;;;;-147.17;45.35;52001.88;5083129;27;50955;-55
2021/10/17 11:04:37;;;;;;;;;18.25;16.50;;;;;-147.17;44.97;51883.72;5073881;27;50959;-54
2021/10/17 11:07:27;;;;;;;;;18.25;17.25;;;;;-147.17;45.65;51913.25;5075504;27;51716;-55
2021/10/17 11:09:55;;;;;;;;;18.50;17.50;;;;;-147.17;45.08;51907.34;5085510;27;51122;-52
2021/10/17 11:12:39;;;;;;;;;18.00;17.25;;;;;-147.17;42.90;51808.88;5074612;27;51074;-54
2021/10/17 11:15:05;;;;;;;;;12.00;11.00;;;;;-147.17;42.84;51757.69;5087865;27;50867;-54
2021/10/17 11:17:31;;;;;;;;;17.75;16.75;;;;;-147.17;45.21;51641.50;5087437;27;51876;-54
2021/10/17 11:19:57;;;;;;;;;18.25;16.25;;;;;-147.17;46.88;51738.00;5093522;27;51203;-54
2021/10/17 11:22:23;;;;;;;;;17.75;16.75;;;;;-147.17;47.51;51767.53;5070925;27;51260;-54
2021/10/17 11:24:53;;;;;;;;;18.00;17.75;;;;;-147.17;47.42;51879.78;5082853;27;51155;-55
2021/10/17 11:27:18;;;;;;;;;16.00;16.00;;;;;-147.17;46.56;51950.69;5080664;27;51384;-54
2021/10/17 11:29:45;;;;;;;;;20.25;19.25;;;;;-147.17;44.28;51986.13;5065001;28;51136;-56
2021/10/17 11:32:18;;;;;;;;;16.50;16.50;;;;;-147.17;44.38;51866.00;5064218;27;51526;-55
2021/10/17 11:35:05;;;;;;;;;14.25;14.25;;;;;-147.17;44.42;51775.41;5072862;28;51041;-55
2021/10/17 11:37:32;;;;;;;;;11.75;11.25;;;;;-147.17;45.98;51747.84;5070264;28;53205;-56
2021/10/17 11:40:12;;;;;;;;;16.00;16.00;;;;;-147.17;47.06;51706.47;5071914;27;51070;-55
2021/10/17 11:42:44;;;;;;;;;18.25;18.25;;;;;-147.17;47.92;51712.41;5060773;27;51170;-55
2021/10/17 11:45:20;;;;;;;;;18.25;18.25;;;;;-147.17;48.35;51745.88;5058093;28;51414;-54
2021/10/17 11:47:50;;;;;;;;;17.75;17.00;;;;;-147.17;48.64;51771.47;5073302;27;51857;-51
2021/10/17 11:50:21;;;;;;;;;16.00;15.00;;;;;-147.17;48.48;51810.84;5073101;27;51113;-54
2021/10/17 11:52:58;;;;;;;;;18.00;17.00;;;;;-147.17;47.37;51881.75;5072631;27;51024;-53
2021/10/17 11:55:32;;;;;;;;;12.00;12.00;;;;;-147.17;44.85;51990.06;5062233;27;51403;-52
2021/10/17 11:57:58;;;;;;;;;12.33;12.33;;;;;-147.17;44.94;51934.94;5072720;28;51375;-55
2021/10/17 12:00:29;;;;;;;;;15.33;15.33;;;;;-147.17;44.63;51887.66;5073417;27;51160;-56
2021/10/17 12:02:55;;;;;;;;;13.00;12.67;;;;;-147.17;45.14;51728.16;5058648;27;51122;-55
2021/10/17 12:05:24;;;;;;;;;16.25;15.75;;;;;-147.17;46.06;51716.34;5066921;28;50979;-53
2021/10/17 12:07:51;;;;;;;;;15.00;14.33;;;;;-147.17;46.62;51647.41;5072592;27;53122;-55
2021/10/17 12:10:16;;;;;;;;;17.25;16.50;;;;;-147.17;47.59;51580.47;5072537;28;51012;-56
2021/10/17 12:12:42;;;;;;;;;9.00;9.00;;;;;-147.17;48.72;51560.75;5060813;27;51056;-56
2021/10/17 12:15:15;;;;;;;;;22.25;21.00;;;;;-147.17;49.87;51493.81;5064444;27;51383;-52
2021/10/17 12:17:41;;;;;;;;;14.00;14.00;;;;;-147.17;50.70;51485.94;5066843;28;51149;-54
2021/10/17 12:20:14;;;;;;;;;10.00;10.00;;;;;-147.17;51.35;51513.50;5073327;27;51051;-54
2021/10/17 12:22:44;;;;;;;;;14.75;13.50;;;;;-147.17;51.64;51452.47;5064877;27;51107;-54
2021/10/17 12:25:11;;;;;;;;;12.67;12.67;;;;;-147.17;51.98;51509.56;5056194;28;51713;-54
2021/10/17 12:27:39;;;;;;;;;18.25;16.50;;;;;-147.17;52.45;51442.63;5067176;28;51934;-56
2021/10/17 12:30:06;;;;;;;;;10.00;9.00;;;;;-147.17;52.92;51426.88;5073078;27;51046;-54
2021/10/17 12:32:46;;;;;;;;;10.25;10.00;;;;;-147.17;52.95;51489.88;5063952;27;51091;-55
2021/10/17 12:35:35;;;;;;;;;9.00;8.67;;;;;-147.17;53.26;51391.41;5055294;28;51189;-55
2021/10/17 12:38:04;;;;;;;;;8.67;8.67;;;;;-147.17;54.07;51363.84;5061866;28;52158;-55
2021/10/17 12:40:29;;;;;;;;;9.67;9.67;;;;;-147.17;54.95;51375.66;5069888;27;51086;-55
2021/10/17 12:43:04;;;;;;;;;12.00;12.00;;;;;-147.17;55.36;51310.69;5068750;27;51174;-54
2021/10/17 12:45:31;;;;;;;;;12.25;12.25;;;;;-147.17;55.40;51324.47;5082808;27;51167;-56
2021/10/17 12:48:00;;;;;;;;;9.00;9.00;;;;;-147.17;55.62;51265.41;5055759;27;52103;-55
2021/10/17 12:50:28;;;;;;;;;9.75;8.50;;;;;-147.17;55.64;51355.97;5070114;27;51150;-54
2021/10/17 12:53:06;;;;;;;;;10.00;8.50;;;;;-147.17;55.54;51340.22;5072311;27;51134;-54
2021/10/17 12:55:36;;;;;;;;;12.25;12.25;;;;;-147.17;55.81;51348.09;5064638;27;51065;-54
2021/10/17 12:58:02;;;;;;;;;10.50;9.75;;;;;-147.17;55.97;51332.34;5065351;28;51775;-55
2021/10/17 13:00:27;;;;;;;;;11.00;10.67;;;;;-147.17;55.90;51316.59;5080657;27;51049;-56
2021/10/17 13:02:53;;;;;;;;;8.25;8.00;;;;;-147.17;56.38;51324.47;5071946;27;50995;-52
2021/10/17 13:05:18;;;;;;;;;10.00;10.00;;;;;-147.17;56.83;51300.84;5065377;27;52059;-55
2021/10/17 13:07:44;;;;;;;;;9.50;9.00;;;;;-147.17;56.95;51294.94;5070159;27;51815;-54
2021/10/17 13:10:12;;;;;;;;;13.00;11.75;;;;;-147.17;56.66;51296.91;5055938;27;51320;-56
2021/10/17 13:12:37;;;;;;;;;12.75;12.50;;;;;-147.17;57.10;51285.09;5068150;27;51284;-56
2021/10/17 13:15:11;;;;;;;;;11.25;11.00;;;;;-147.17;57.53;51269.34;5071761;28;51350;-56
2021/10/17 13:17:40;;;;;;;;;12.25;12.25;;;;;-147.17;57.87;51302.81;5070052;28;52257;-55
2021/10/17 13:20:08;;;;;;;;;11.00;10.00;;;;;-147.17;57.91;51269.34;5056848;28;51162;-56
2021/10/17 13:22:35;;;;;;;;;10.00;10.00;;;;;-147.17;57.91;51289.03;5069758;27;51250;-55
2021/10/17 13:25:04;;;;;;;;;5.00;5.00;;;;;-147.17;56.53;51308.72;5052052;28;51373;-56
2021/10/17 13:27:29;;;;;;;;;7.75;7.00;;;;;-147.17;56.23;51316.59;5065943;28;52651;-56
2021/10/17 13:29:56;;;;;;;;;6.33;6.00;;;;;-147.17;55.81;51296.91;5071410;27;51030;-54
2021/10/17 13:32:26;;;;;;;;;7.00;6.67;;;;;-147.17;55.22;51279.19;5069925;27;51020;-56
2021/10/17 13:34:52;;;;;;;;;8.00;8.00;;;;;-147.17;55.53;51312.66;5064677;27;51173;-57
2021/10/17 13:37:17;;;;;;;;;8.50;7.75;;;;;-147.17;55.08;51283.13;5062322;28;52072;-56